Time;durP1;ratioP1;P1;durP2;ratioP2;P2;SDS_P1;SDS_P2;PMS_P1;PMS_P2;Temp;Humidity;BMP_temperature;BMP_pressure;BME280_temperature;BME280_humidity;BME280_pressure;Samples;Min_cycle;Max_cycle;Signal;HPM_P1;HPM_P2
2022/02/13 00:00:40;;;;;;;2.80;2.30;;;;;;;-2.22;75.25;98752.19;6233529;28;20508;-73
2022/02/13 00:03:42;;;;;;;4.57;2.77;;;;;;;-2.33;75.75;98752.34;6233109;28;20254;-71
2022/02/13 00:06:44;;;;;;;4.97;2.73;;;;;;;-2.42;75.52;98749.84;6233611;28;20228;-73
2022/02/13 00:09:47;;;;;;;2.93;2.20;;;;;;;-2.34;76.40;98749.75;6229088;28;20236;-72
2022/02/13 00:12:49;;;;;;;2.70;2.30;;;;;;;-2.42;75.66;98757.59;6213720;28;20854;-74
2022/02/13 00:15:51;;;;;;;3.10;2.23;;;;;;;-2.46;75.94;98748.16;6232312;28;20722;-72
2022/02/13 00:18:54;;;;;;;5.30;2.87;;;;;;;-2.48;76.05;98755.06;6228192;28;20714;-72
2022/02/13 00:22:17;;;;;;;4.17;2.60;;;;;;;-2.54;76.03;98743.97;6228843;28;20331;-72
2022/02/13 00:25:19;;;;;;;4.00;2.47;;;;;;;-2.46;76.46;98752.47;6229328;28;20234;-72
2022/02/13 00:28:22;;;;;;;4.90;2.97;;;;;;;-2.03;74.36;98733.00;6229541;28;20274;-72
2022/02/13 00:31:24;;;;;;;3.73;2.80;;;;;;;-1.79;73.67;98736.09;6219570;28;20661;-72
2022/02/13 00:34:26;;;;;;;3.63;2.60;;;;;;;-1.78;73.83;98733.50;6215565;28;20231;-74
2022/02/13 00:37:31;;;;;;;3.77;2.57;;;;;;;-1.87;73.73;98726.72;6219215;28;20339;-72
2022/02/13 00:40:33;;;;;;;5.47;2.03;;;;;;;-1.91;73.78;98729.38;6228861;28;20232;-73
2022/02/13 00:43:35;;;;;;;3.90;2.50;;;;;;;-1.94;74.09;98730.28;6228761;28;20240;-73
2022/02/13 00:46:38;;;;;;;3.77;2.83;;;;;;;-1.79;73.65;98733.50;6227299;28;20724;-73
2022/02/13 00:49:40;;;;;;;3.73;2.80;;;;;;;-1.80;73.43;98730.09;6219313;28;20246;-72
2022/02/13 00:52:42;;;;;;;4.17;2.53;;;;;;;-1.78;72.80;98733.50;6215080;28;20938;-72
2022/02/13 00:55:44;;;;;;;4.97;2.63;;;;;;;-1.62;72.57;98731.56;6219757;28;20231;-73
2022/02/13 00:58:47;;;;;;;2.87;2.40;;;;;;;-1.70;72.28;98723.91;6226795;28;20243;-73
2022/02/13 01:01:49;;;;;;;3.17;2.43;;;;;;;-1.82;73.00;98723.22;6228849;28;20228;-73
2022/02/13 01:04:51;;;;;;;2.83;2.07;;;;;;;-2.06;74.66;98722.69;6226602;28;20604;-72
2022/02/13 01:07:54;;;;;;;3.27;2.47;;;;;;;-2.27;75.48;98722.94;6228181;28;20219;-73
2022/02/13 01:10:56;;;;;;;5.83;2.50;;;;;;;-2.38;75.80;98719.63;6215617;28;20266;-73
2022/02/13 01:14:00;;;;;;;4.47;2.27;;;;;;;-2.55;75.96;98709.50;6227618;28;20274;-72
2022/02/13 01:17:02;;;;;;;2.60;1.97;;;;;;;-2.65;76.69;98707.91;6226697;28;20239;-72
2022/02/13 01:20:05;;;;;;;2.40;2.07;;;;;;;-2.75;77.04;98711.47;6228330;28;20231;-73
2022/02/13 01:23:08;;;;;;;2.77;2.20;;;;;;;-2.83;77.28;98714.13;6226727;28;20228;-72
2022/02/13 01:26:11;;;;;;;3.90;2.17;;;;;;;-2.95;78.04;98716.84;6227368;28;20414;-73
2022/02/13 01:29:13;;;;;;;4.50;2.20;;;;;;;-3.01;78.67;98706.59;6212673;28;20238;-73
2022/02/13 01:32:15;;;;;;;3.70;2.27;;;;;;;-3.07;77.75;98701.47;6227724;28;20250;-72
2022/02/13 01:35:17;;;;;;;4.30;2.43;;;;;;;-3.10;79.10;98699.78;6226988;28;20219;-72
2022/02/13 01:38:20;;;;;;;2.97;2.60;;;;;;;-3.12;78.61;98688.63;6226334;28;20235;-71
2022/02/13 01:41:23;;;;;;;4.23;2.30;;;;;;;-3.13;79.63;98686.91;6212172;28;20228;-73
2022/02/13 01:44:27;;;;;;;5.20;2.30;;;;;;;-3.17;79.09;98686.94;6224727;28;20236;-72
2022/02/13 01:47:30;;;;;;;2.97;2.40;;;;;;;-3.23;79.72;98687.84;6227655;28;20609;-73
2022/02/13 01:50:32;;;;;;;3.03;2.40;;;;;;;-3.25;79.14;98673.25;6225798;28;20227;-72
2022/02/13 01:53:35;;;;;;;3.30;2.37;;;;;;;-3.25;79.73;98678.41;6225926;28;20331;-71
2022/02/13 01:56:38;;;;;;;4.50;2.47;;;;;;;-3.30;79.80;98670.72;6226862;28;20226;-74
2022/02/13 01:59:41;;;;;;;3.27;2.17;;;;;;;-3.32;79.43;98679.34;6227552;28;20220;-72
2022/02/13 02:02:43;;;;;;;4.57;2.47;;;;;;;-3.36;79.21;98668.19;6209139;28;20235;-72
2022/02/13 02:05:45;;;;;;;4.77;2.67;;;;;;;-3.40;79.67;98663.94;6225193;28;20235;-73
2022/02/13 02:08:48;;;;;;;4.93;2.57;;;;;;;-3.41;79.59;98665.66;6226815;28;20223;-72
2022/02/13 02:11:51;;;;;;;4.10;2.30;;;;;;;-3.44;79.34;98669.97;6206195;28;20243;-72
2022/02/13 02:14:53;;;;;;;3.57;2.50;;;;;;;-3.51;79.51;98660.59;6209131;28;20724;-73
2022/02/13 02:17:55;;;;;;;2.80;2.27;;;;;;;-3.55;79.46;98664.91;6207837;28;20314;-72
2022/02/13 02:21:02;;;;;;;4.17;2.50;;;;;;;-3.57;79.38;98661.47;6202356;28;20228;-74
2022/02/13 02:24:09;;;;;;;3.67;2.67;;;;;;;-3.67;79.62;98657.28;6216807;28;20221;-73
2022/02/13 02:27:13;;;;;;;3.23;2.47;;;;;;;-3.69;79.57;98648.69;6203266;28;20620;-73
2022/02/13 02:30:15;;;;;;;4.13;2.57;;;;;;;-3.73;79.66;98649.59;6201835;28;20289;-73
2022/02/13 02:33:19;;;;;;;2.33;2.03;;;;;;;-3.75;78.93;98652.19;6225203;28;20581;-73
2022/02/13 02:36:22;;;;;;;3.33;2.50;;;;;;;-3.83;79.63;98643.66;6224488;28;20236;-73
2022/02/13 02:39:24;;;;;;;4.67;2.30;;;;;;;-3.91;79.58;98647.16;6216050;28;20595;-73
2022/02/13 02:42:26;;;;;;;4.50;2.53;;;;;;;-3.95;79.71;98641.16;6225345;28;20354;-73
2022/02/13 02:45:29;;;;;;;4.33;2.43;;;;;;;-3.95;79.62;98638.59;6207893;28;20230;-72
2022/02/13 02:48:32;;;;;;;3.67;2.50;;;;;;;-3.97;79.90;98636.88;6225819;28;20259;-73
2022/02/13 02:51:35;;;;;;;5.77;2.50;;;;;;;-4.01;79.36;98637.78;6226058;28;20611;-72
2022/02/13 02:54:37;;;;;;;4.70;2.77;;;;;;;-4.07;79.58;98624.91;6208743;28;20239;-73
2022/02/13 02:57:39;;;;;;;3.20;2.53;;;;;;;-4.11;79.85;98631.84;6225091;28;20239;-73
2022/02/13 03:00:41;;;;;;;3.80;2.60;;;;;;;-4.18;79.41;98637.88;6200709;28;20247;-73
2022/02/13 03:03:43;;;;;;;2.93;2.27;;;;;;;-4.25;79.61;98631.91;6222857;28;20228;-74
2022/02/13 03:06:46;;;;;;;4.10;2.20;;;;;;;-4.32;79.44;98624.25;6224394;28;20231;-72
2022/02/13 03:09:48;;;;;;;4.37;2.10;;;;;;;-4.37;79.57;98631.13;6223570;28;20251;-72
2022/02/13 03:12:50;;;;;;;2.07;1.80;;;;;;;-4.38;79.96;98632.00;6209544;28;20571;-73
2022/02/13 03:15:54;;;;;;;4.30;2.20;;;;;;;-4.41;79.88;98626.88;6225231;28;20235;-72
2022/02/13 03:18:56;;;;;;;3.27;2.43;;;;;;;-4.39;80.01;98635.47;6224065;28;20816;-73
2022/02/13 03:21:58;;;;;;;4.03;2.27;;;;;;;-4.44;80.36;98635.47;6224012;28;20230;-72
2022/02/13 03:25:01;;;;;;;3.30;2.23;;;;;;;-4.45;80.14;98636.34;6225885;28;20236;-72
2022/02/13 03:28:03;;;;;;;5.17;2.63;;;;;;;-4.42;80.35;98631.16;6225689;28;20231;-73
2022/02/13 03:31:05;;;;;;;6.03;2.90;;;;;;;-4.46;80.17;98632.91;6225635;28;20670;-73
2022/02/13 03:34:07;;;;;;;3.87;2.47;;;;;;;-4.46;80.29;98632.03;6225613;28;20227;-74
2022/02/13 03:37:10;;;;;;;4.03;2.13;;;;;;;-4.42;80.56;98631.16;6224434;28;20238;-72
2022/02/13 03:40:13;;;;;;;3.53;2.27;;;;;;;-4.42;79.83;98640.63;6219649;28;20224;-72
2022/02/13 03:43:15;;;;;;;2.27;1.77;;;;;;;-4.45;80.64;98633.75;6206670;28;20293;-73
2022/02/13 03:46:17;;;;;;;3.97;2.77;;;;;;;-4.39;80.83;98630.31;6223795;28;20224;-73
2022/02/13 03:49:20;;;;;;;3.17;2.17;;;;;;;-4.45;80.28;98628.59;6224887;28;20453;-72
2022/02/13 03:52:23;;;;;;;3.63;2.03;;;;;;;-4.49;80.75;98624.31;6225185;28;20530;-74
2022/02/13 03:55:26;;;;;;;3.53;1.87;;;;;;;-4.48;80.39;98626.91;6229045;28;20239;-73
2022/02/13 03:58:28;;;;;;;4.40;2.13;;;;;;;-4.45;81.12;98628.59;6227351;28;20234;-72
2022/02/13 04:01:31;;;;;;;5.37;2.33;;;;;;;-4.47;80.57;98631.19;6228443;28;20243;-73
2022/02/13 04:04:33;;;;;;;2.77;2.00;;;;;;;-4.46;80.40;98635.47;6212463;28;20253;-72
2022/02/13 04:07:38;;;;;;;3.40;2.37;;;;;;;-4.41;81.01;98638.03;6229271;28;20242;-73
2022/02/13 04:10:40;;;;;;;3.90;2.40;;;;;;;-4.39;80.99;98635.47;6228650;28;20242;-72
2022/02/13 04:13:42;;;;;;;3.03;2.20;;;;;;;-4.43;80.59;98626.88;6230785;28;20228;-73
2022/02/13 04:16:45;;;;;;;3.60;2.37;;;;;;;-4.48;80.62;98620.88;6229103;28;20235;-73
2022/02/13 04:19:47;;;;;;;3.80;2.00;;;;;;;-4.53;80.80;98623.50;6230573;28;20227;-73
2022/02/13 04:22:49;;;;;;;3.47;2.27;;;;;;;-4.45;81.14;98620.88;6227992;28;20227;-73
2022/02/13 04:25:53;;;;;;;3.53;2.40;;;;;;;-4.46;80.75;98626.88;6230209;28;20712;-73
2022/02/13 04:28:57;;;;;;;4.70;1.77;;;;;;;-4.49;80.22;98622.59;6229408;28;20667;-72
2022/02/13 04:31:59;;;;;;;3.67;2.10;;;;;;;-4.55;80.84;98617.50;6229187;28;20243;-72
2022/02/13 04:35:02;;;;;;;3.27;2.20;;;;;;;-4.58;80.88;98622.66;6227399;28;20247;-72
2022/02/13 04:38:04;;;;;;;3.13;1.97;;;;;;;-4.60;80.78;98621.84;6228534;28;20226;-72
2022/02/13 04:41:06;;;;;;;2.27;1.93;;;;;;;-4.62;81.01;98618.41;6216255;28;20716;-73
2022/02/13 04:44:09;;;;;;;2.37;2.00;;;;;;;-4.66;81.22;98614.13;6227889;28;20227;-72
2022/02/13 04:47:11;;;;;;;3.40;2.20;;;;;;;-4.68;81.22;98617.56;6229886;28;20238;-73
2022/02/13 04:50:20;;;;;;;2.03;1.70;;;;;;;-4.73;81.01;98611.59;6227986;28;20609;-72
2022/02/13 04:53:22;;;;;;;3.83;2.00;;;;;;;-4.75;80.73;98613.31;6227290;28;20600;-73
2022/02/13 04:56:24;;;;;;;2.47;2.17;;;;;;;-4.75;80.83;98609.00;6209208;28;20326;-73
2022/02/13 04:59:28;;;;;;;3.67;2.30;;;;;;;-4.80;80.94;98602.19;6228846;28;20216;-73
2022/02/13 05:02:31;;;;;;;3.20;2.40;;;;;;;-4.85;80.79;98603.06;6226593;28;20224;-73
2022/02/13 05:05:33;;;;;;;3.23;2.10;;;;;;;-4.93;79.93;98604.81;6227456;28;20232;-72
2022/02/13 05:08:35;;;;;;;3.17;2.00;;;;;;;-5.04;80.68;98606.56;6226803;28;20238;-72
2022/02/13 05:11:46;;;;;;;5.07;2.20;;;;;;;-5.08;80.52;98606.56;6210941;28;20236;-73
2022/02/13 05:14:48;;;;;;;4.30;1.97;;;;;;;-5.11;80.45;98610.03;6217227;28;20355;-73
2022/02/13 05:17:51;;;;;;;3.03;1.90;;;;;;;-5.10;80.54;98606.59;6203628;28;20265;-73
2022/02/13 05:20:53;;;;;;;5.33;2.27;;;;;;;-5.08;80.79;98604.00;6203551;28;20708;-73
2022/02/13 05:23:55;;;;;;;3.67;2.07;;;;;;;-5.08;80.92;98612.56;6203345;28;20232;-73
2022/02/13 05:26:57;;;;;;;2.47;2.07;;;;;;;-5.14;80.75;98606.59;6202351;28;20363;-73
2022/02/13 05:29:59;;;;;;;3.43;2.10;;;;;;;-5.18;80.82;98608.31;6222124;28;20642;-72
2022/02/13 05:33:02;;;;;;;3.77;2.37;;;;;;;-5.19;81.29;98610.94;6226181;28;20723;-72
2022/02/13 05:36:04;;;;;;;4.07;2.30;;;;;;;-5.27;80.82;98608.34;6227506;28;20235;-73
2022/02/13 05:39:06;;;;;;;3.40;2.20;;;;;;;-5.29;80.58;98612.66;6227920;28;20226;-73
2022/02/13 05:42:09;;;;;;;3.33;2.33;;;;;;;-5.31;80.69;98609.22;6209621;28;20218;-72
2022/02/13 05:45:11;;;;;;;3.23;2.33;;;;;;;-5.34;80.74;98609.22;6226274;28;20212;-73
2022/02/13 05:48:14;;;;;;;2.33;1.80;;;;;;;-5.32;80.82;98608.38;6226308;28;20219;-72
2022/02/13 05:51:17;;;;;;;4.37;2.50;;;;;;;-5.36;80.67;98598.94;6227022;28;20265;-73
2022/02/13 05:54:19;;;;;;;3.43;2.27;;;;;;;-5.40;81.02;98602.41;6226928;28;20219;-73
2022/02/13 05:57:22;;;;;;;3.80;2.40;;;;;;;-5.42;80.85;98603.25;6227214;28;20227;-72
2022/02/13 06:00:24;;;;;;;2.93;1.90;;;;;;;-5.49;80.67;98599.81;6225251;28;20302;-72
2022/02/13 06:03:26;;;;;;;4.63;1.80;;;;;;;-5.52;80.77;98597.28;6226634;28;20226;-72
2022/02/13 06:06:28;;;;;;;2.93;1.83;;;;;;;-5.55;81.05;98601.56;6226096;28;20224;-74
2022/02/13 06:09:30;;;;;;;3.97;1.97;;;;;;;-5.58;80.86;98604.97;6226480;28;20262;-74
2022/02/13 06:12:33;;;;;;;3.83;2.53;;;;;;;-5.58;81.06;98604.97;6213997;28;20247;-71
2022/02/13 06:15:35;;;;;;;4.20;2.30;;;;;;;-5.58;81.33;98602.41;6225592;28;20227;-73
2022/02/13 06:18:37;;;;;;;3.20;2.00;;;;;;;-5.56;81.50;98610.97;6226390;28;20354;-72
2022/02/13 06:21:39;;;;;;;3.90;1.90;;;;;;;-5.52;81.36;98609.28;6226450;28;20223;-72
2022/02/13 06:24:41;;;;;;;2.73;2.03;;;;;;;-5.48;81.05;98605.81;6224704;28;20604;-73
2022/02/13 06:27:44;;;;;;;3.40;1.93;;;;;;;-5.48;81.68;98610.97;6224362;28;20232;-72
2022/02/13 06:30:46;;;;;;;4.07;2.30;;;;;;;-5.43;81.38;98614.41;6216378;28;20251;-73
2022/02/13 06:33:53;;;;;;;3.17;2.07;;;;;;;-5.40;81.24;98609.25;6217498;28;20266;-73
2022/02/13 06:36:56;;;;;;;3.00;2.27;;;;;;;-5.35;81.14;98613.53;6217563;28;20239;-73
2022/02/13 06:39:58;;;;;;;3.53;2.07;;;;;;;-5.27;81.73;98610.91;6208268;28;20375;-73
2022/02/13 06:43:00;;;;;;;5.00;1.90;;;;;;;-5.26;81.72;98604.91;6200578;28;20969;-72
2022/02/13 06:46:02;;;;;;;2.10;1.83;;;;;;;-5.15;81.88;98618.59;6206042;28;20601;-73
2022/02/13 06:49:05;;;;;;;4.20;2.00;;;;;;;-5.10;81.34;98613.47;6224244;28;20238;-73
2022/02/13 06:52:07;;;;;;;2.80;2.07;;;;;;;-5.09;81.79;98613.44;6227374;28;20241;-73
2022/02/13 06:55:09;;;;;;;1.97;1.50;;;;;;;-5.03;81.49;98615.16;6225358;28;20235;-71
2022/02/13 06:58:11;;;;;;;2.27;1.77;;;;;;;-4.98;81.44;98608.25;6226120;28;20246;-73
2022/02/13 07:01:14;;;;;;;2.70;2.00;;;;;;;-4.91;81.46;98608.25;6226447;28;20263;-73
2022/02/13 07:04:16;;;;;;;2.50;2.00;;;;;;;-4.81;81.56;98608.19;6224734;28;21073;-73
2022/02/13 07:07:18;;;;;;;2.63;1.80;;;;;;;-4.73;81.53;98604.72;6225598;28;20360;-73
2022/02/13 07:10:21;;;;;;;3.23;1.97;;;;;;;-4.66;81.47;98610.69;6224761;28;20643;-73
2022/02/13 07:13:23;;;;;;;3.23;2.17;;;;;;;-4.60;81.60;98603.81;6225961;28;20512;-72
2022/02/13 07:16:26;;;;;;;3.37;1.77;;;;;;;-4.55;81.64;98602.03;6225229;28;20238;-73
2022/02/13 07:19:28;;;;;;;4.97;2.00;;;;;;;-4.46;82.07;98598.56;6225404;28;20235;-73
2022/02/13 07:22:30;;;;;;;4.00;2.33;;;;;;;-4.37;81.73;98601.06;6224081;28;20235;-73
2022/02/13 07:25:32;;;;;;;3.03;2.03;;;;;;;-4.31;81.03;98603.63;6225553;28;20247;-73
2022/02/13 07:31:55;;;;;;;2.97;1.93;;;;;;;-4.15;80.96;98599.22;6231105;28;20770;-73
2022/02/13 07:34:57;;;;;;;4.83;2.30;;;;;;;-4.07;81.00;98597.44;6230004;28;20242;-72
2022/02/13 07:37:59;;;;;;;3.30;2.20;;;;;;;-3.91;80.82;98599.03;6230304;28;20231;-73
2022/02/13 07:41:01;;;;;;;3.00;1.90;;;;;;;-3.73;80.57;98595.44;6220869;28;20231;-74
2022/02/13 07:44:04;;;;;;;2.97;1.90;;;;;;;-3.56;79.52;98596.13;6229643;28;20757;-74
2022/02/13 07:47:06;;;;;;;5.10;1.90;;;;;;;-3.38;80.28;98593.38;6203937;28;20475;-73
2022/02/13 07:50:09;;;;;;;3.07;2.00;;;;;;;-3.24;79.01;98592.38;6225734;28;20243;-73
2022/02/13 07:53:11;;;;;;;4.37;2.20;;;;;;;-3.10;78.82;98593.09;6229749;28;20711;-73
2022/02/13 07:56:15;;;;;;;4.17;2.03;;;;;;;-2.77;76.70;98591.81;6212930;28;20238;-73
2022/02/13 07:59:17;;;;;;;2.93;2.10;;;;;;;-2.62;76.45;98592.47;6229280;28;20230;-72
2022/02/13 08:02:20;;;;;;;2.43;2.07;;;;;;;-2.44;74.63;98593.09;6229737;28;20559;-73
2022/02/13 08:05:22;;;;;;;2.57;1.80;;;;;;;-2.05;71.85;98591.66;6229179;28;20548;-72
2022/02/13 08:08:24;;;;;;;3.30;1.70;;;;;;;-1.74;69.83;98584.25;6227627;28;20603;-72
2022/02/13 08:11:26;;;;;;;3.23;2.17;;;;;;;-1.50;68.23;98594.19;6213258;28;20529;-72
2022/02/13 08:14:28;;;;;;;2.40;1.70;;;;;;;-1.24;66.64;98591.13;6227109;28;20227;-72
2022/02/13 08:17:31;;;;;;;2.83;1.90;;;;;;;-1.04;64.78;98586.41;6230344;28;20242;-72
2022/02/13 08:20:34;;;;;;;2.33;1.60;;;;;;;-0.67;61.96;98581.34;6229038;28;20232;-73
2022/02/13 08:23:36;;;;;;;2.00;1.60;;;;;;;-0.35;62.36;98572.00;6229053;28;20278;-73
2022/02/13 08:26:38;;;;;;;4.57;1.70;;;;;;;-0.18;61.02;98573.31;6210808;28;20711;-73
2022/02/13 08:29:42;;;;;;;4.40;1.67;;;;;;;-0.08;59.76;98567.03;6228833;28;20236;-72
2022/02/13 08:32:44;;;;;;;2.53;1.80;;;;;;;0.09;59.40;98564.06;6229207;28;20236;-72
2022/02/13 08:35:46;;;;;;;4.10;1.70;;;;;;;0.38;59.09;98562.47;6210468;28;20615;-72
2022/02/13 08:38:50;;;;;;;2.60;1.60;;;;;;;0.53;57.47;98562.91;6234119;28;20662;-73
2022/02/13 08:41:52;;;;;;;2.40;1.47;;;;;;;0.86;56.81;98557.72;6206976;28;20228;-73
2022/02/13 08:44:54;;;;;;;2.80;2.00;;;;;;;1.15;55.62;98549.94;6195227;28;20231;-73
2022/02/13 08:47:57;;;;;;;2.37;1.80;;;;;;;1.37;53.76;98548.44;6217566;28;20231;-73
2022/02/13 08:50:59;;;;;;;1.93;1.43;;;;;;;1.71;52.63;98556.06;6243444;28;20239;-73
2022/02/13 08:54:01;;;;;;;2.93;1.43;;;;;;;1.92;52.93;98553.69;6225729;28;20373;-72
2022/02/13 08:57:03;;;;;;;2.00;1.60;;;;;;;2.23;51.27;98549.19;6228081;28;20248;-72
2022/02/13 09:00:09;;;;;;;2.07;1.40;;;;;;;2.45;50.11;98550.19;6226311;28;20756;-75
2022/02/13 09:03:11;;;;;;;2.50;1.60;;;;;;;2.73;49.34;98549.22;6228603;28;20222;-73
2022/02/13 09:06:13;;;;;;;2.13;1.63;;;;;;;3.04;48.41;98551.59;6227986;28;20219;-75
2022/02/13 09:09:16;;;;;;;2.27;1.63;;;;;;;3.33;47.82;98546.16;6227958;28;20220;-75
2022/02/13 09:12:19;;;;;;;2.63;1.87;;;;;;;3.52;47.29;98541.94;6221092;28;20245;-74
2022/02/13 09:15:21;;;;;;;3.13;1.60;;;;;;;3.67;48.33;98538.78;6228610;28;20366;-73
2022/02/13 09:18:23;;;;;;;2.37;1.70;;;;;;;3.92;47.57;98532.56;6221692;28;20258;-73
2022/02/13 09:21:25;;;;;;;2.17;1.40;;;;;;;4.24;46.89;98532.13;6206878;28;20232;-74
2022/02/13 09:24:28;;;;;;;3.57;1.80;;;;;;;4.42;45.80;98533.97;6227247;28;20307;-66
2022/02/13 09:27:30;;;;;;;1.93;1.50;;;;;;;4.60;46.26;98537.56;6228458;28;20231;-71
2022/02/13 09:30:32;;;;;;;3.17;1.80;;;;;;;4.84;46.20;98538.28;6203926;28;20231;-74
2022/02/13 09:33:35;;;;;;;2.17;1.60;;;;;;;5.05;46.43;98539.09;6231859;28;20242;-74
2022/02/13 09:36:37;;;;;;;3.43;1.73;;;;;;;5.38;45.99;98534.97;6223949;28;20234;-74
2022/02/13 09:39:40;;;;;;;2.20;1.73;;;;;;;5.66;45.00;98520.59;6228283;28;20237;-72
2022/02/13 09:42:44;;;;;;;2.80;1.97;;;;;;;5.85;44.82;98524.91;6216630;28;20238;-74
2022/02/13 09:45:51;;;;;;;2.10;1.83;;;;;;;5.90;43.75;98522.91;6229504;28;20233;-74
2022/02/13 09:48:55;;;;;;;2.90;1.73;;;;;;;5.83;43.51;98523.25;6209656;28;20783;-74
2022/02/13 09:51:58;;;;;;;3.43;1.73;;;;;;;6.00;45.00;98523.31;6230742;28;20243;-74
2022/02/13 09:55:02;;;;;;;2.83;1.83;;;;;;;6.20;44.15;98517.09;6229659;28;20242;-73
2022/02/13 09:58:04;;;;;;;2.17;1.93;;;;;;;6.46;42.96;98514.06;6235933;28;20233;-73
2022/02/13 10:01:10;;;;;;;2.80;1.90;;;;;;;6.61;44.60;98517.66;6216682;28;20267;-72
2022/02/13 10:04:13;;;;;;;4.03;2.07;;;;;;;6.90;43.22;98516.16;6227129;28;20228;-73
2022/02/13 10:07:17;;;;;;;2.37;1.90;;;;;;;7.08;42.16;98507.34;6226614;28;20235;-74
2022/02/13 10:10:19;;;;;;;2.70;1.90;;;;;;;7.07;41.98;98507.44;6220389;28;20232;-73
2022/02/13 10:13:21;;;;;;;2.73;2.10;;;;;;;7.29;42.19;98500.91;6211043;28;20235;-73
2022/02/13 10:16:31;;;;;;;2.60;1.90;;;;;;;7.51;41.67;98492.72;6209551;28;20231;-74
2022/02/13 10:19:33;;;;;;;2.80;2.20;;;;;;;7.58;41.17;98482.75;6227780;28;20238;-74
2022/02/13 10:22:37;;;;;;;3.40;2.00;;;;;;;7.46;40.20;98491.31;6226537;28;20231;-74
2022/02/13 10:25:41;;;;;;;2.33;1.80;;;;;;;7.24;40.93;98481.09;6227157;28;20256;-74
2022/02/13 10:28:55;;;;;;;2.83;2.47;;;;;;;7.59;41.54;98484.41;6227145;28;20227;-74
2022/02/13 10:32:15;;;;;;;3.43;2.20;;;;;;;7.71;39.94;98478.50;6217453;28;20236;-74
2022/02/13 10:35:17;;;;;;;3.50;2.20;;;;;;;7.97;41.04;98467.38;6205602;28;20246;-75
2022/02/13 10:38:28;;;;;;;2.83;2.40;;;;;;;8.20;40.27;98458.13;6220142;28;20772;-74
2022/02/13 10:41:35;;;;;;;4.43;2.87;;;;;;;8.07;39.61;98457.19;6223527;28;20325;-74
2022/02/13 10:44:37;;;;;;;3.17;2.43;;;;;;;7.96;39.83;98449.06;6225918;28;20235;-75
2022/02/13 10:47:39;;;;;;;4.10;2.93;;;;;;;8.04;40.22;98447.69;6228981;28;20232;-74
2022/02/13 10:50:42;;;;;;;3.87;2.73;;;;;;;8.10;40.28;98439.44;6229208;28;20253;-74
2022/02/13 10:53:45;;;;;;;3.83;3.03;;;;;;;8.17;40.99;98432.03;6213880;28;20238;-73
2022/02/13 10:56:47;;;;;;;4.67;3.07;;;;;;;8.25;41.28;98427.19;6204082;28;20241;-74
2022/02/13 10:59:49;;;;;;;4.27;2.63;;;;;;;8.35;40.18;98423.09;6225444;28;20224;-75
2022/02/13 11:02:53;;;;;;;4.10;2.60;;;;;;;8.53;40.08;98410.63;6229041;28;20366;-75
2022/02/13 11:05:58;;;;;;;3.33;2.30;;;;;;;8.94;40.60;98397.56;6213090;28;20255;-74
2022/02/13 11:09:31;;;;;;;2.30;2.10;;;;;;;9.12;40.02;98393.78;6212671;28;20344;-74
2022/02/13 11:12:34;;;;;;;3.00;2.20;;;;;;;9.38;38.84;98391.28;6216651;28;20240;-75
2022/02/13 11:15:38;;;;;;;3.17;1.97;;;;;;;9.40;38.53;98389.38;6238057;28;20236;-74
2022/02/13 11:18:41;;;;;;;3.60;2.20;;;;;;;9.32;36.95;98374.06;6241711;28;20538;-73
2022/02/13 11:21:44;;;;;;;3.27;2.40;;;;;;;9.21;37.45;98374.75;6225454;28;20223;-74
2022/02/13 11:24:51;;;;;;;4.90;2.33;;;;;;;9.30;37.65;98368.06;6228140;28;20234;-74
2022/02/13 11:27:59;;;;;;;4.10;2.47;;;;;;;9.56;37.15;98354.06;6209348;28;20516;-74
2022/02/13 11:31:01;;;;;;;3.13;2.43;;;;;;;9.19;36.52;98355.56;6226153;28;20228;-74
2022/02/13 11:34:04;;;;;;;3.20;2.50;;;;;;;8.94;37.47;98354.59;6225682;28;20438;-74
2022/02/13 11:37:19;;;;;;;2.20;2.00;;;;;;;9.33;37.25;98343.31;6226105;28;20230;-73
2022/02/13 11:40:39;;;;;;;3.30;2.20;;;;;;;9.75;37.19;98342.31;6218578;28;20310;-74
2022/02/13 11:43:44;;;;;;;2.67;2.20;;;;;;;9.73;35.68;98336.28;6215225;28;20269;-73
2022/02/13 11:46:46;;;;;;;2.37;1.83;;;;;;;9.66;36.44;98327.09;6225546;28;20273;-74
2022/02/13 11:50:11;;;;;;;3.43;2.30;;;;;;;9.32;35.54;98333.72;6225723;28;20230;-73
2022/02/13 11:53:24;;;;;;;2.80;2.60;;;;;;;9.22;36.36;98326.41;6225500;28;20239;-73
2022/02/13 11:56:28;;;;;;;2.43;2.00;;;;;;;9.75;36.30;98313.31;6224217;28;20224;-73
2022/02/13 11:59:53;;;;;;;2.90;2.40;;;;;;;9.82;36.69;98310.16;6226055;28;20421;-75
2022/02/13 12:02:56;;;;;;;3.63;2.47;;;;;;;10.08;34.82;98303.09;6224168;28;20239;-72
2022/02/13 12:06:01;;;;;;;5.63;2.43;;;;;;;10.22;34.43;98295.13;6224450;28;20236;-73
2022/02/13 12:09:10;;;;;;;2.40;2.20;;;;;;;10.15;36.39;98299.13;6223643;28;20722;-74
2022/02/13 12:12:21;;;;;;;2.77;2.20;;;;;;;10.43;35.02;98297.22;6222881;28;20247;-74
2022/02/13 12:15:24;;;;;;;2.27;2.07;;;;;;;10.52;34.77;98278.09;6211852;28;20232;-73
2022/02/13 12:18:27;;;;;;;3.17;2.43;;;;;;;10.80;34.92;98282.28;6230189;28;20220;-74
2022/02/13 12:21:29;;;;;;;4.03;2.60;;;;;;;10.29;34.17;98271.78;6228717;28;20732;-73
2022/02/13 12:24:32;;;;;;;3.93;2.10;;;;;;;10.30;33.94;98273.50;6229138;28;20227;-74
2022/02/13 12:27:36;;;;;;;2.70;2.17;;;;;;;10.28;34.14;98265.69;6228933;28;20332;-73
2022/02/13 12:30:46;;;;;;;2.73;2.10;;;;;;;10.40;33.77;98268.41;6228925;28;20227;-74
2022/02/13 12:33:53;;;;;;;3.40;2.77;;;;;;;10.80;34.98;98259.34;6228867;28;20239;-74
2022/02/13 12:37:02;;;;;;;5.87;2.67;;;;;;;11.02;33.53;98262.13;6228366;28;20248;-74
2022/02/13 12:40:06;;;;;;;3.30;2.37;;;;;;;11.20;33.03;98253.81;6206033;28;20248;-74
2022/02/13 12:43:10;;;;;;;3.53;2.20;;;;;;;11.01;34.14;98260.44;6214871;28;20510;-74
2022/02/13 12:46:16;;;;;;;3.43;2.50;;;;;;;11.36;33.53;98254.38;6221157;28;20244;-74
2022/02/13 12:49:18;;;;;;;2.97;2.40;;;;;;;11.09;33.50;98244.88;6227404;28;20237;-74
2022/02/13 12:52:23;;;;;;;3.50;2.40;;;;;;;11.38;32.83;98236.59;6227386;28;20241;-73
2022/02/13 12:55:26;;;;;;;4.77;2.50;;;;;;;11.55;32.65;98244.13;6228325;28;20264;-73
2022/02/13 12:58:34;;;;;;;3.93;2.37;;;;;;;11.76;33.31;98239.88;6228204;28;20243;-74
2022/02/13 13:01:37;;;;;;;2.70;2.50;;;;;;;12.02;32.46;98239.69;6227484;28;20242;-74
2022/02/13 13:04:40;;;;;;;3.40;2.80;;;;;;;11.79;32.25;98233.50;6226661;28;20233;-72
2022/02/13 13:07:42;;;;;;;4.07;2.70;;;;;;;11.72;32.33;98230.44;6228324;28;20225;-74
2022/02/13 13:10:53;;;;;;;2.87;2.57;;;;;;;11.79;31.59;98218.47;6217754;28;20241;-74
2022/02/13 13:14:05;;;;;;;3.27;2.40;;;;;;;12.51;31.86;98212.84;6223760;28;20324;-73
2022/02/13 13:17:08;;;;;;;3.00;2.40;;;;;;;12.76;30.00;98212.59;6226783;28;20245;-74
2022/02/13 13:20:25;;;;;;;2.47;2.20;;;;;;;12.90;30.42;98208.81;6227815;28;20345;-74
2022/02/13 13:23:28;;;;;;;2.97;2.17;;;;;;;12.31;30.39;98203.00;6227500;28;20227;-73
2022/02/13 13:26:34;;;;;;;2.30;2.10;;;;;;;13.55;28.86;98189.31;6227847;28;20225;-72
2022/02/13 13:29:42;;;;;;;3.90;2.47;;;;;;;13.78;27.88;98188.19;6219208;28;20618;-73
2022/02/13 13:32:44;;;;;;;2.73;2.40;;;;;;;16.12;25.21;98182.94;6228472;28;20271;-74
2022/02/13 13:35:53;;;;;;;2.80;2.43;;;;;;;17.40;23.60;98174.91;6227230;28;20403;-73
2022/02/13 13:38:55;;;;;;;2.97;2.50;;;;;;;18.96;21.54;98171.16;6226895;28;20233;-74
2022/02/13 13:41:59;;;;;;;3.63;2.30;;;;;;;20.13;20.76;98163.63;6208170;28;20235;-74
2022/02/13 13:45:08;;;;;;;4.67;2.50;;;;;;;20.46;20.04;98164.41;6224183;28;20230;-73
2022/02/13 13:48:14;;;;;;;3.37;2.50;;;;;;;18.88;21.25;98160.41;6227404;28;20211;-74
2022/02/13 13:51:17;;;;;;;2.60;2.30;;;;;;;17.57;22.04;98158.03;6228864;28;20223;-73
2022/02/13 13:54:19;;;;;;;2.17;1.90;;;;;;;17.07;23.09;98152.44;6228909;28;20846;-74
2022/02/13 13:57:21;;;;;;;2.60;2.33;;;;;;;16.33;23.55;98160.56;6227963;28;20779;-74
2022/02/13 14:00:24;;;;;;;3.83;2.47;;;;;;;16.16;23.86;98156.88;6225495;28;20232;-73
2022/02/13 14:03:27;;;;;;;3.83;2.20;;;;;;;14.29;26.10;98144.81;6225044;28;20221;-74
2022/02/13 14:06:29;;;;;;;4.00;2.30;;;;;;;12.18;28.83;98152.84;6225659;28;20569;-73
2022/02/13 14:09:31;;;;;;;2.73;2.37;;;;;;;11.14;31.63;98153.88;6227313;28;20241;-73
2022/02/13 14:12:35;;;;;;;2.30;2.10;;;;;;;10.00;32.83;98144.56;6222799;28;20245;-72
2022/02/13 14:15:37;;;;;;;3.90;2.47;;;;;;;9.05;35.44;98149.41;6227083;28;20243;-72
2022/02/13 14:18:39;;;;;;;2.30;2.10;;;;;;;8.45;35.59;98153.31;6226257;28;20238;-74
2022/02/13 14:21:41;;;;;;;3.00;2.27;;;;;;;8.06;35.71;98147.94;6225442;28;20568;-71
2022/02/13 14:24:43;;;;;;;3.03;2.47;;;;;;;7.65;36.83;98151.34;6226267;28;20245;-72
2022/02/13 14:27:50;;;;;;;4.20;2.27;;;;;;;7.42;36.74;98141.38;6224796;28;20733;-72
2022/02/13 14:30:52;;;;;;;3.80;2.30;;;;;;;7.24;36.93;98137.22;6226812;28;20243;-72